Agricola, Mississippi
Current Conditions -  °F | °C
As of 2:56 PM on Sunday 23 Nov 2014 (Local Time) from KMOB Reporting Station
Broken Clouds Broken Clouds  
Wind Chill: 66°   Ceiling: 2200
Heat Index: 66°   Visibility: 10mi
Dew Point: 61°   Wind: 16mph
Humidity: 84%   Direction: 220°SW
Pressure: 29.67"   Gusts: 29mph
Location:  30.8443°N, 88.5703°W
Report Text: KMOB 232056Z 22014G25KT 10SM BKN022 19/16 A2967 RMK AO2 PK WND 21026/2024 SLP045 60002 T01890161 55010 $
Loading
Personal Weather Stations






























Interactive Weather Map New forecast layout! Learn more

10-Day Weather Forecast

Advertisements
Track Severe Weather on mobile